sensor_id;sensor_type;location;lat;lon;timestamp;temperature;humidity
18147;DHT22;9199;48.832;9.182;2023-12-04T00:01:43;-3.60;99.90
18147;DHT22;9199;48.832;9.182;2023-12-04T00:04:10;-3.60;99.90
18147;DHT22;9199;48.832;9.182;2023-12-04T00:06:37;-3.60;99.90
18147;DHT22;9199;48.832;9.182;2023-12-04T00:09:03;-3.60;99.90
18147;DHT22;9199;48.832;9.182;2023-12-04T00:11:30;-3.70;99.90
18147;DHT22;9199;48.832;9.182;2023-12-04T00:13:59;-3.70;99.90
18147;DHT22;9199;48.832;9.182;2023-12-04T00:16:25;-3.60;99.90
18147;DHT22;9199;48.832;9.182;2023-12-04T00:18:52;-3.60;99.90
18147;DHT22;9199;48.832;9.182;2023-12-04T00:21:19;-3.60;99.90
18147;DHT22;9199;48.832;9.182;2023-12-04T00:23:45;-3.60;99.90
18147;DHT22;9199;48.832;9.182;2023-12-04T00:26:12;-3.60;99.90
18147;DHT22;9199;48.832;9.182;2023-12-04T00:28:39;-3.60;99.90
18147;DHT22;9199;48.832;9.182;2023-12-04T00:31:08;-3.50;99.90
18147;DHT22;9199;48.832;9.182;2023-12-04T00:33:36;-3.40;99.90
18147;DHT22;9199;48.832;9.182;2023-12-04T00:36:03;-3.40;99.90
18147;DHT22;9199;48.832;9.182;2023-12-04T00:38:30;-3.30;99.90
18147;DHT22;9199;48.832;9.182;2023-12-04T00:40:57;-3.20;99.90
18147;DHT22;9199;48.832;9.182;2023-12-04T00:43:23;-3.20;99.90
18147;DHT22;9199;48.832;9.182;2023-12-04T00:45:50;-3.30;99.90
18147;DHT22;9199;48.832;9.182;2023-12-04T00:48:18;-3.30;99.90
18147;DHT22;9199;48.832;9.182;2023-12-04T00:50:45;-3.40;99.90
18147;DHT22;9199;48.832;9.182;2023-12-04T00:53:12;-3.30;99.90
18147;DHT22;9199;48.832;9.182;2023-12-04T00:55:38;-3.30;99.90
18147;DHT22;9199;48.832;9.182;2023-12-04T00:58:05;-3.20;99.90
18147;DHT22;9199;48.832;9.182;2023-12-04T01:00:32;-3.20;99.90
18147;DHT22;9199;48.832;9.182;2023-12-04T01:02:58;-3.10;99.90
18147;DHT22;9199;48.832;9.182;2023-12-04T01:05:26;-3.10;99.90
18147;DHT22;9199;48.832;9.182;2023-12-04T01:07:53;-3.10;99.90
18147;DHT22;9199;48.832;9.182;2023-12-04T01:10:20;-3.10;99.90
18147;DHT22;9199;48.832;9.182;2023-12-04T01:12:46;-3.10;99.90
18147;DHT22;9199;48.832;9.182;2023-12-04T01:15:13;-3.10;99.90
18147;DHT22;9199;48.832;9.182;2023-12-04T01:17:40;-3.10;99.90
18147;DHT22;9199;48.832;9.182;2023-12-04T01:20:07;-3.10;99.90
18147;DHT22;9199;48.832;9.182;2023-12-04T01:22:35;-3.10;99.90
18147;DHT22;9199;48.832;9.182;2023-12-04T01:25:03;-3.10;99.90
18147;DHT22;9199;48.832;9.182;2023-12-04T01:27:30;-3.10;99.90
18147;DHT22;9199;48.832;9.182;2023-12-04T01:29:57;-3.10;99.90
18147;DHT22;9199;48.832;9.182;2023-12-04T01:32:23;-3.10;99.90
18147;DHT22;9199;48.832;9.182;2023-12-04T01:34:51;-3.00;99.90
18147;DHT22;9199;48.832;9.182;2023-12-04T01:37:17;-2.90;99.90
18147;DHT22;9199;48.832;9.182;2023-12-04T01:39:46;-2.80;99.90
18147;DHT22;9199;48.832;9.182;2023-12-04T01:42:12;-2.80;99.90
18147;DHT22;9199;48.832;9.182;2023-12-04T01:44:39;-2.90;99.90
18147;DHT22;9199;48.832;9.182;2023-12-04T01:47:06;-2.90;99.90
18147;DHT22;9199;48.832;9.182;2023-12-04T01:49:33;-2.90;99.90
18147;DHT22;9199;48.832;9.182;2023-12-04T01:52:00;-2.90;99.90
18147;DHT22;9199;48.832;9.182;2023-12-04T01:54:27;-2.80;99.90
18147;DHT22;9199;48.832;9.182;2023-12-04T01:56:56;-2.80;99.90
18147;DHT22;9199;48.832;9.182;2023-12-04T01:59:23;-2.70;99.90
18147;DHT22;9199;48.832;9.182;2023-12-04T02:01:50;-2.70;99.90
18147;DHT22;9199;48.832;9.182;2023-12-04T02:04:18;-2.70;99.90
18147;DHT22;9199;48.832;9.182;2023-12-04T02:06:45;-2.70;99.90
18147;DHT22;9199;48.832;9.182;2023-12-04T02:09:12;-2.60;99.90
18147;DHT22;9199;48.832;9.182;2023-12-04T02:11:41;-2.70;99.90
18147;DHT22;9199;48.832;9.182;2023-12-04T02:14:10;-2.80;99.90
18147;DHT22;9199;48.832;9.182;2023-12-04T02:16:39;-2.80;99.90
18147;DHT22;9199;48.832;9.182;2023-12-04T02:19:07;-2.80;99.90
18147;DHT22;9199;48.832;9.182;2023-12-04T02:21:34;-2.80;99.90
18147;DHT22;9199;48.832;9.182;2023-12-04T02:24:02;-2.80;99.90
18147;DHT22;9199;48.832;9.182;2023-12-04T02:26:36;-2.90;99.90
18147;DHT22;9199;48.832;9.182;2023-12-04T02:29:09;-3.00;99.90
18147;DHT22;9199;48.832;9.182;2023-12-04T02:31:39;-3.00;99.90
18147;DHT22;9199;48.832;9.182;2023-12-04T02:34:07;-3.10;99.90
18147;DHT22;9199;48.832;9.182;2023-12-04T02:36:36;-3.10;99.90
18147;DHT22;9199;48.832;9.182;2023-12-04T02:39:04;-3.20;99.90
18147;DHT22;9199;48.832;9.182;2023-12-04T02:41:31;-3.30;99.90
18147;DHT22;9199;48.832;9.182;2023-12-04T02:43:58;-3.30;99.90
18147;DHT22;9199;48.832;9.182;2023-12-04T02:46:25;-3.20;99.90
18147;DHT22;9199;48.832;9.182;2023-12-04T02:48:52;-3.30;99.90
18147;DHT22;9199;48.832;9.182;2023-12-04T02:51:18;-3.30;99.90
18147;DHT22;9199;48.832;9.182;2023-12-04T02:53:45;-3.30;99.90
18147;DHT22;9199;48.832;9.182;2023-12-04T02:56:13;-3.30;99.90
18147;DHT22;9199;48.832;9.182;2023-12-04T02:58:40;-3.30;99.90
18147;DHT22;9199;48.832;9.182;2023-12-04T03:01:07;-3.30;99.90
18147;DHT22;9199;48.832;9.182;2023-12-04T03:03:33;-3.30;99.90
18147;DHT22;9199;48.832;9.182;2023-12-04T03:06:00;-3.20;99.90
18147;DHT22;9199;48.832;9.182;2023-12-04T03:08:27;-3.30;99.90
18147;DHT22;9199;48.832;9.182;2023-12-04T03:10:53;-3.30;99.90
18147;DHT22;9199;48.832;9.182;2023-12-04T03:13:21;-3.40;99.90
18147;DHT22;9199;48.832;9.182;2023-12-04T03:15:48;-3.40;99.90
18147;DHT22;9199;48.832;9.182;2023-12-04T03:18:15;-3.40;99.90
18147;DHT22;9199;48.832;9.182;2023-12-04T03:20:41;-3.40;99.90
18147;DHT22;9199;48.832;9.182;2023-12-04T03:23:08;-3.50;99.90
18147;DHT22;9199;48.832;9.182;2023-12-04T03:25:35;-3.50;99.90
18147;DHT22;9199;48.832;9.182;2023-12-04T03:28:01;-3.50;99.90
18147;DHT22;9199;48.832;9.182;2023-12-04T03:30:30;-3.50;99.90
18147;DHT22;9199;48.832;9.182;2023-12-04T03:32:56;-3.50;99.90
18147;DHT22;9199;48.832;9.182;2023-12-04T03:35:23;-3.50;99.90
18147;DHT22;9199;48.832;9.182;2023-12-04T03:37:50;-3.50;99.90
18147;DHT22;9199;48.832;9.182;2023-12-04T03:40:16;-3.50;99.90
18147;DHT22;9199;48.832;9.182;2023-12-04T03:42:43;-3.40;99.90
18147;DHT22;9199;48.832;9.182;2023-12-04T03:45:10;-3.30;99.90
18147;DHT22;9199;48.832;9.182;2023-12-04T03:47:38;-3.30;99.90
18147;DHT22;9199;48.832;9.182;2023-12-04T03:50:05;-3.30;99.90
18147;DHT22;9199;48.832;9.182;2023-12-04T03:52:32;-3.20;99.90
18147;DHT22;9199;48.832;9.182;2023-12-04T03:54:59;-3.30;99.90
18147;DHT22;9199;48.832;9.182;2023-12-04T03:57:26;-3.30;99.90
18147;DHT22;9199;48.832;9.182;2023-12-04T03:59:52;-3.30;99.90
18147;DHT22;9199;48.832;9.182;2023-12-04T04:02:19;-3.30;99.90
18147;DHT22;9199;48.832;9.182;2023-12-04T04:04:47;-3.40;99.90
18147;DHT22;9199;48.832;9.182;2023-12-04T04:07:16;-3.40;99.90
18147;DHT22;9199;48.832;9.182;2023-12-04T04:09:43;-3.40;99.90
18147;DHT22;9199;48.832;9.182;2023-12-04T04:12:10;-3.40;99.90
18147;DHT22;9199;48.832;9.182;2023-12-04T04:14:37;-3.40;99.90
18147;DHT22;9199;48.832;9.182;2023-12-04T04:17:04;-3.30;99.90
18147;DHT22;9199;48.832;9.182;2023-12-04T04:19:30;-3.30;99.90
18147;DHT22;9199;48.832;9.182;2023-12-04T04:21:59;-3.30;99.90
18147;DHT22;9199;48.832;9.182;2023-12-04T04:24:26;-3.30;99.90
18147;DHT22;9199;48.832;9.182;2023-12-04T04:26:53;-3.30;99.90
18147;DHT22;9199;48.832;9.182;2023-12-04T04:29:19;-3.30;99.90
18147;DHT22;9199;48.832;9.182;2023-12-04T04:31:46;-3.20;99.90
18147;DHT22;9199;48.832;9.182;2023-12-04T04:34:13;-3.20;99.90
18147;DHT22;9199;48.832;9.182;2023-12-04T04:36:40;-3.10;99.90
18147;DHT22;9199;48.832;9.182;2023-12-04T04:39:08;-3.10;99.90
18147;DHT22;9199;48.832;9.182;2023-12-04T04:41:36;-3.10;99.90
18147;DHT22;9199;48.832;9.182;2023-12-04T04:44:03;-3.10;99.90
18147;DHT22;9199;48.832;9.182;2023-12-04T04:46:30;-3.10;99.90
18147;DHT22;9199;48.832;9.182;2023-12-04T04:48:56;-3.10;99.90
18147;DHT22;9199;48.832;9.182;2023-12-04T04:51:23;-3.10;99.90
18147;DHT22;9199;48.832;9.182;2023-12-04T04:53:50;-3.10;99.90
18147;DHT22;9199;48.832;9.182;2023-12-04T04:56:18;-3.10;99.90
18147;DHT22;9199;48.832;9.182;2023-12-04T04:58:45;-3.10;99.90
18147;DHT22;9199;48.832;9.182;2023-12-04T05:01:12;-3.00;99.90
18147;DHT22;9199;48.832;9.182;2023-12-04T05:03:39;-2.90;99.90
18147;DHT22;9199;48.832;9.182;2023-12-04T05:06:06;-2.80;99.90
18147;DHT22;9199;48.832;9.182;2023-12-04T05:08:33;-2.70;99.90
18147;DHT22;9199;48.832;9.182;2023-12-04T05:11:00;-2.60;99.90
18147;DHT22;9199;48.832;9.182;2023-12-04T05:13:28;-2.50;99.90
18147;DHT22;9199;48.832;9.182;2023-12-04T05:15:55;-2.50;99.90
18147;DHT22;9199;48.832;9.182;2023-12-04T05:18:22;-2.50;99.90
18147;DHT22;9199;48.832;9.182;2023-12-04T05:20:48;-2.50;99.90
18147;DHT22;9199;48.832;9.182;2023-12-04T05:23:15;-2.40;99.90
18147;DHT22;9199;48.832;9.182;2023-12-04T05:25:42;-2.50;99.90
18147;DHT22;9199;48.832;9.182;2023-12-04T05:28:09;-2.50;99.90
18147;DHT22;9199;48.832;9.182;2023-12-04T05:30:37;-2.60;99.90
18147;DHT22;9199;48.832;9.182;2023-12-04T05:33:03;-2.70;99.90
18147;DHT22;9199;48.832;9.182;2023-12-04T05:35:30;-2.70;99.90
18147;DHT22;9199;48.832;9.182;2023-12-04T05:37:59;-2.70;99.90
18147;DHT22;9199;48.832;9.182;2023-12-04T05:40:26;-2.60;99.90
18147;DHT22;9199;48.832;9.182;2023-12-04T05:42:53;-2.60;99.90
18147;DHT22;9199;48.832;9.182;2023-12-04T05:45:19;-2.60;99.90
18147;DHT22;9199;48.832;9.182;2023-12-04T05:47:48;-2.70;99.90
18147;DHT22;9199;48.832;9.182;2023-12-04T05:50:14;-2.70;99.90
18147;DHT22;9199;48.832;9.182;2023-12-04T05:52:41;-2.80;99.90
18147;DHT22;9199;48.832;9.182;2023-12-04T05:55:09;-2.90;99.90
18147;DHT22;9199;48.832;9.182;2023-12-04T05:57:36;-2.90;99.90
18147;DHT22;9199;48.832;9.182;2023-12-04T06:00:05;-2.90;99.90
18147;DHT22;9199;48.832;9.182;2023-12-04T06:02:37;-2.90;99.90
18147;DHT22;9199;48.832;9.182;2023-12-04T06:05:06;-2.40;99.90
18147;DHT22;9199;48.832;9.182;2023-12-04T06:07:33;-1.50;99.90
18147;DHT22;9199;48.832;9.182;2023-12-04T06:10:00;-1.50;99.90
18147;DHT22;9199;48.832;9.182;2023-12-04T06:12:27;-1.80;99.90
18147;DHT22;9199;48.832;9.182;2023-12-04T06:14:53;-2.10;99.90
18147;DHT22;9199;48.832;9.182;2023-12-04T06:17:20;-2.30;99.90
18147;DHT22;9199;48.832;9.182;2023-12-04T06:19:47;-2.40;99.90
18147;DHT22;9199;48.832;9.182;2023-12-04T06:22:16;-2.50;99.90
18147;DHT22;9199;48.832;9.182;2023-12-04T06:24:45;-2.60;99.90
18147;DHT22;9199;48.832;9.182;2023-12-04T06:27:15;-2.60;99.90
18147;DHT22;9199;48.832;9.182;2023-12-04T06:29:43;-2.60;99.90
18147;DHT22;9199;48.832;9.182;2023-12-04T06:32:11;-2.60;99.90
18147;DHT22;9199;48.832;9.182;2023-12-04T06:34:39;-2.60;99.90
18147;DHT22;9199;48.832;9.182;2023-12-04T06:37:09;-2.60;99.90
18147;DHT22;9199;48.832;9.182;2023-12-04T06:39:39;-2.60;99.90
18147;DHT22;9199;48.832;9.182;2023-12-04T06:42:07;-2.60;99.90
18147;DHT22;9199;48.832;9.182;2023-12-04T06:44:35;-2.60;99.90
18147;DHT22;9199;48.832;9.182;2023-12-04T06:47:02;-2.70;99.90
18147;DHT22;9199;48.832;9.182;2023-12-04T06:49:30;-2.60;99.90
18147;DHT22;9199;48.832;9.182;2023-12-04T06:51:58;-2.60;99.90
18147;DHT22;9199;48.832;9.182;2023-12-04T06:54:25;-2.60;99.90
18147;DHT22;9199;48.832;9.182;2023-12-04T06:56:53;-2.60;99.90
18147;DHT22;9199;48.832;9.182;2023-12-04T06:59:20;-2.70;99.90
18147;DHT22;9199;48.832;9.182;2023-12-04T07:01:47;-2.70;99.90
18147;DHT22;9199;48.832;9.182;2023-12-04T07:04:15;-2.70;99.90
18147;DHT22;9199;48.832;9.182;2023-12-04T07:06:46;-2.60;99.90
18147;DHT22;9199;48.832;9.182;2023-12-04T07:09:13;-2.60;99.90
18147;DHT22;9199;48.832;9.182;2023-12-04T07:11:40;-2.50;99.90
18147;DHT22;9199;48.832;9.182;2023-12-04T07:14:11;-2.50;99.90
18147;DHT22;9199;48.832;9.182;2023-12-04T07:16:41;-2.50;99.90
18147;DHT22;9199;48.832;9.182;2023-12-04T07:19:08;-2.40;99.90
18147;DHT22;9199;48.832;9.182;2023-12-04T07:21:35;-2.30;99.90
18147;DHT22;9199;48.832;9.182;2023-12-04T07:24:02;-2.20;99.90
18147;DHT22;9199;48.832;9.182;2023-12-04T07:26:30;-2.20;99.90
18147;DHT22;9199;48.832;9.182;2023-12-04T07:28:56;-2.10;99.90
18147;DHT22;9199;48.832;9.182;2023-12-04T07:31:25;-2.10;99.90
18147;DHT22;9199;48.832;9.182;2023-12-04T07:33:52;-2.10;99.90
18147;DHT22;9199;48.832;9.182;2023-12-04T07:36:19;-2.20;99.90
18147;DHT22;9199;48.832;9.182;2023-12-04T07:38:46;-2.10;99.90
18147;DHT22;9199;48.832;9.182;2023-12-04T07:41:13;-2.10;99.90
18147;DHT22;9199;48.832;9.182;2023-12-04T07:43:40;-2.10;99.90
18147;DHT22;9199;48.832;9.182;2023-12-04T07:46:09;-2.10;99.90
18147;DHT22;9199;48.832;9.182;2023-12-04T07:48:38;-2.00;99.90
18147;DHT22;9199;48.832;9.182;2023-12-04T07:51:05;-1.90;99.90
18147;DHT22;9199;48.832;9.182;2023-12-04T07:53:32;-1.90;99.90
18147;DHT22;9199;48.832;9.182;2023-12-04T07:56:01;-1.90;99.90
18147;DHT22;9199;48.832;9.182;2023-12-04T07:58:30;-1.80;99.90
18147;DHT22;9199;48.832;9.182;2023-12-04T08:00:57;-1.70;99.90
18147;DHT22;9199;48.832;9.182;2023-12-04T08:03:24;-1.80;99.90
18147;DHT22;9199;48.832;9.182;2023-12-04T08:05:53;-1.80;99.90
18147;DHT22;9199;48.832;9.182;2023-12-04T08:08:20;-1.70;99.90
18147;DHT22;9199;48.832;9.182;2023-12-04T08:10:47;-1.70;99.90
18147;DHT22;9199;48.832;9.182;2023-12-04T08:13:14;-1.70;99.90
18147;DHT22;9199;48.832;9.182;2023-12-04T08:15:41;-1.70;99.90
18147;DHT22;9199;48.832;9.182;2023-12-04T08:18:08;-1.60;99.90
18147;DHT22;9199;48.832;9.182;2023-12-04T08:20:35;-1.50;99.90
18147;DHT22;9199;48.832;9.182;2023-12-04T08:23:03;-1.50;99.90
18147;DHT22;9199;48.832;9.182;2023-12-04T08:25:31;-1.50;99.90
18147;DHT22;9199;48.832;9.182;2023-12-04T08:27:58;-1.50;99.90
18147;DHT22;9199;48.832;9.182;2023-12-04T08:30:25;-1.60;99.90
18147;DHT22;9199;48.832;9.182;2023-12-04T08:32:53;-1.60;99.90
18147;DHT22;9199;48.832;9.182;2023-12-04T08:35:20;-1.60;99.90
18147;DHT22;9199;48.832;9.182;2023-12-04T08:37:47;-1.50;99.90
18147;DHT22;9199;48.832;9.182;2023-12-04T08:40:15;-1.40;99.90
18147;DHT22;9199;48.832;9.182;2023-12-04T08:42:43;-1.30;99.90
18147;DHT22;9199;48.832;9.182;2023-12-04T08:45:10;-1.20;99.90
18147;DHT22;9199;48.832;9.182;2023-12-04T08:47:37;-1.20;99.90
18147;DHT22;9199;48.832;9.182;2023-12-04T08:50:05;-1.20;99.90
18147;DHT22;9199;48.832;9.182;2023-12-04T08:52:32;-1.20;99.90
18147;DHT22;9199;48.832;9.182;2023-12-04T08:54:59;-1.10;99.90
18147;DHT22;9199;48.832;9.182;2023-12-04T08:57:27;-1.00;99.90
18147;DHT22;9199;48.832;9.182;2023-12-04T08:59:54;-1.00;99.90
18147;DHT22;9199;48.832;9.182;2023-12-04T09:02:20;-1.00;99.90
18147;DHT22;9199;48.832;9.182;2023-12-04T09:04:47;-0.90;99.90
18147;DHT22;9199;48.832;9.182;2023-12-04T09:07:14;-0.80;99.90
18147;DHT22;9199;48.832;9.182;2023-12-04T09:09:41;-0.80;99.90
18147;DHT22;9199;48.832;9.182;2023-12-04T09:12:09;-0.80;99.90
18147;DHT22;9199;48.832;9.182;2023-12-04T09:14:37;-0.80;99.90
18147;DHT22;9199;48.832;9.182;2023-12-04T09:17:04;-0.90;99.90
18147;DHT22;9199;48.832;9.182;2023-12-04T09:19:31;-0.90;99.90
18147;DHT22;9199;48.832;9.182;2023-12-04T09:21:58;-0.80;99.90
18147;DHT22;9199;48.832;9.182;2023-12-04T09:24:24;-0.70;99.90
18147;DHT22;9199;48.832;9.182;2023-12-04T09:26:53;-0.70;99.90
18147;DHT22;9199;48.832;9.182;2023-12-04T09:29:20;-0.60;99.90
18147;DHT22;9199;48.832;9.182;2023-12-04T09:31:50;-0.60;99.90
18147;DHT22;9199;48.832;9.182;2023-12-04T09:34:17;-0.60;99.90
18147;DHT22;9199;48.832;9.182;2023-12-04T09:36:45;-0.50;99.90
18147;DHT22;9199;48.832;9.182;2023-12-04T09:39:12;-0.50;99.90
18147;DHT22;9199;48.832;9.182;2023-12-04T09:41:40;-0.40;99.90
18147;DHT22;9199;48.832;9.182;2023-12-04T09:44:08;-0.30;99.90
18147;DHT22;9199;48.832;9.182;2023-12-04T09:46:35;-0.20;99.90
18147;DHT22;9199;48.832;9.182;2023-12-04T09:49:04;-0.20;99.90
18147;DHT22;9199;48.832;9.182;2023-12-04T09:51:31;-0.20;99.90
18147;DHT22;9199;48.832;9.182;2023-12-04T09:54:02;-0.30;99.90
18147;DHT22;9199;48.832;9.182;2023-12-04T09:56:30;-0.40;99.90
18147;DHT22;9199;48.832;9.182;2023-12-04T09:58:59;-0.50;99.90
18147;DHT22;9199;48.832;9.182;2023-12-04T10:01:28;-0.50;99.90
18147;DHT22;9199;48.832;9.182;2023-12-04T10:03:56;-0.50;99.90
18147;DHT22;9199;48.832;9.182;2023-12-04T10:06:26;-0.40;99.90
18147;DHT22;9199;48.832;9.182;2023-12-04T10:08:54;-0.40;99.90
18147;DHT22;9199;48.832;9.182;2023-12-04T10:11:22;-0.30;99.90
18147;DHT22;9199;48.832;9.182;2023-12-04T10:13:49;-0.30;99.90
18147;DHT22;9199;48.832;9.182;2023-12-04T10:16:31;-0.30;99.90
18147;DHT22;9199;48.832;9.182;2023-12-04T10:19:14;-0.20;99.90
18147;DHT22;9199;48.832;9.182;2023-12-04T10:21:42;0.00;99.90
18147;DHT22;9199;48.832;9.182;2023-12-04T10:24:09;0.20;99.90
18147;DHT22;9199;48.832;9.182;2023-12-04T10:26:35;0.30;99.90
18147;DHT22;9199;48.832;9.182;2023-12-04T10:29:03;0.40;99.90
18147;DHT22;9199;48.832;9.182;2023-12-04T10:31:34;0.40;99.90
18147;DHT22;9199;48.832;9.182;2023-12-04T10:34:01;0.40;99.90
18147;DHT22;9199;48.832;9.182;2023-12-04T10:36:30;0.40;99.90
18147;DHT22;9199;48.832;9.182;2023-12-04T10:39:02;0.50;99.90
18147;DHT22;9199;48.832;9.182;2023-12-04T10:41:30;0.60;99.90
18147;DHT22;9199;48.832;9.182;2023-12-04T10:43:57;0.70;99.90
18147;DHT22;9199;48.832;9.182;2023-12-04T10:46:26;0.70;99.90
18147;DHT22;9199;48.832;9.182;2023-12-04T10:48:53;0.80;99.90
18147;DHT22;9199;48.832;9.182;2023-12-04T10:51:20;0.90;99.90
18147;DHT22;9199;48.832;9.182;2023-12-04T10:53:48;0.90;99.90
18147;DHT22;9199;48.832;9.182;2023-12-04T10:56:19;0.90;99.90
18147;DHT22;9199;48.832;9.182;2023-12-04T10:58:49;1.00;99.90
18147;DHT22;9199;48.832;9.182;2023-12-04T11:01:18;1.10;99.90
18147;DHT22;9199;48.832;9.182;2023-12-04T11:03:48;1.10;99.90
18147;DHT22;9199;48.832;9.182;2023-12-04T11:06:16;1.10;99.90
18147;DHT22;9199;48.832;9.182;2023-12-04T11:08:47;1.10;99.90
18147;DHT22;9199;48.832;9.182;2023-12-04T11:11:21;1.10;99.90
18147;DHT22;9199;48.832;9.182;2023-12-04T11:13:50;1.30;99.90
18147;DHT22;9199;48.832;9.182;2023-12-04T11:16:33;1.40;99.90
18147;DHT22;9199;48.832;9.182;2023-12-04T11:19:06;1.50;99.90
18147;DHT22;9199;48.832;9.182;2023-12-04T11:21:39;1.50;99.90
18147;DHT22;9199;48.832;9.182;2023-12-04T11:24:06;1.40;99.90
18147;DHT22;9199;48.832;9.182;2023-12-04T11:26:35;1.30;99.90
18147;DHT22;9199;48.832;9.182;2023-12-04T11:29:02;1.30;99.90
18147;DHT22;9199;48.832;9.182;2023-12-04T11:31:30;1.20;99.90
18147;DHT22;9199;48.832;9.182;2023-12-04T11:34:01;1.00;99.90
18147;DHT22;9199;48.832;9.182;2023-12-04T11:36:28;1.00;99.90
18147;DHT22;9199;48.832;9.182;2023-12-04T11:38:55;1.00;99.90
18147;DHT22;9199;48.832;9.182;2023-12-04T11:41:23;1.00;99.90
18147;DHT22;9199;48.832;9.182;2023-12-04T11:43:52;1.00;99.90
18147;DHT22;9199;48.832;9.182;2023-12-04T11:46:22;1.00;99.90
18147;DHT22;9199;48.832;9.182;2023-12-04T11:48:49;0.90;99.90
18147;DHT22;9199;48.832;9.182;2023-12-04T11:51:46;1.00;99.90
18147;DHT22;9199;48.832;9.182;2023-12-04T11:54:17;1.20;99.90
18147;DHT22;9199;48.832;9.182;2023-12-04T11:56:57;1.20;99.90
18147;DHT22;9199;48.832;9.182;2023-12-04T11:59:26;1.40;99.90
18147;DHT22;9199;48.832;9.182;2023-12-04T12:01:54;1.30;99.90
18147;DHT22;9199;48.832;9.182;2023-12-04T12:04:22;1.30;99.90
18147;DHT22;9199;48.832;9.182;2023-12-04T12:06:50;1.30;99.90
18147;DHT22;9199;48.832;9.182;2023-12-04T12:09:17;1.30;99.90
18147;DHT22;9199;48.832;9.182;2023-12-04T12:11:44;1.20;99.90
18147;DHT22;9199;48.832;9.182;2023-12-04T12:14:11;1.20;99.90
18147;DHT22;9199;48.832;9.182;2023-12-04T12:16:40;1.10;99.90
18147;DHT22;9199;48.832;9.182;2023-12-04T12:19:07;1.20;99.90
18147;DHT22;9199;48.832;9.182;2023-12-04T12:21:34;1.30;99.90
18147;DHT22;9199;48.832;9.182;2023-12-04T12:24:00;1.30;99.90
18147;DHT22;9199;48.832;9.182;2023-12-04T12:26:28;1.30;99.90
18147;DHT22;9199;48.832;9.182;2023-12-04T12:28:56;1.30;99.90
18147;DHT22;9199;48.832;9.182;2023-12-04T12:31:22;1.40;99.90
18147;DHT22;9199;48.832;9.182;2023-12-04T12:33:50;1.40;99.90
18147;DHT22;9199;48.832;9.182;2023-12-04T12:36:18;1.50;99.90
18147;DHT22;9199;48.832;9.182;2023-12-04T12:38:45;1.50;99.90
18147;DHT22;9199;48.832;9.182;2023-12-04T12:41:15;1.40;99.90
18147;DHT22;9199;48.832;9.182;2023-12-04T12:43:42;1.30;99.90
18147;DHT22;9199;48.832;9.182;2023-12-04T12:46:10;1.30;99.90
18147;DHT22;9199;48.832;9.182;2023-12-04T12:48:36;1.40;99.90
18147;DHT22;9199;48.832;9.182;2023-12-04T12:51:06;1.50;99.90
18147;DHT22;9199;48.832;9.182;2023-12-04T12:53:35;1.60;99.90
18147;DHT22;9199;48.832;9.182;2023-12-04T12:56:02;1.60;99.90
18147;DHT22;9199;48.832;9.182;2023-12-04T12:58:28;1.70;99.90
18147;DHT22;9199;48.832;9.182;2023-12-04T13:00:55;1.80;99.90
18147;DHT22;9199;48.832;9.182;2023-12-04T13:03:22;1.80;99.90
18147;DHT22;9199;48.832;9.182;2023-12-04T13:05:49;1.80;99.90
18147;DHT22;9199;48.832;9.182;2023-12-04T13:08:18;1.60;99.90
18147;DHT22;9199;48.832;9.182;2023-12-04T13:10:45;1.50;99.90
18147;DHT22;9199;48.832;9.182;2023-12-04T13:13:13;1.60;99.90
18147;DHT22;9199;48.832;9.182;2023-12-04T13:15:39;1.50;99.90
18147;DHT22;9199;48.832;9.182;2023-12-04T13:18:08;1.40;99.90
18147;DHT22;9199;48.832;9.182;2023-12-04T13:20:35;1.40;99.90
18147;DHT22;9199;48.832;9.182;2023-12-04T13:23:01;1.40;99.90
18147;DHT22;9199;48.832;9.182;2023-12-04T13:25:30;1.40;99.90
18147;DHT22;9199;48.832;9.182;2023-12-04T13:27:57;1.50;99.90
18147;DHT22;9199;48.832;9.182;2023-12-04T13:30:24;1.50;99.90
18147;DHT22;9199;48.832;9.182;2023-12-04T13:32:51;1.60;99.90
18147;DHT22;9199;48.832;9.182;2023-12-04T13:35:18;1.50;99.90
18147;DHT22;9199;48.832;9.182;2023-12-04T13:37:45;1.50;99.90
18147;DHT22;9199;48.832;9.182;2023-12-04T13:40:12;1.60;99.90
18147;DHT22;9199;48.832;9.182;2023-12-04T13:42:43;1.50;99.90
18147;DHT22;9199;48.832;9.182;2023-12-04T13:45:27;1.50;99.90
18147;DHT22;9199;48.832;9.182;2023-12-04T13:47:54;1.40;99.90
18147;DHT22;9199;48.832;9.182;2023-12-04T13:50:20;1.40;99.90
18147;DHT22;9199;48.832;9.182;2023-12-04T13:52:47;1.30;99.90
18147;DHT22;9199;48.832;9.182;2023-12-04T13:55:21;1.20;99.90
18147;DHT22;9199;48.832;9.182;2023-12-04T13:58:03;1.10;99.90
18147;DHT22;9199;48.832;9.182;2023-12-04T14:00:36;1.00;99.90
18147;DHT22;9199;48.832;9.182;2023-12-04T14:03:02;0.90;99.90
18147;DHT22;9199;48.832;9.182;2023-12-04T14:05:30;0.80;99.90
18147;DHT22;9199;48.832;9.182;2023-12-04T14:07:57;0.80;99.90
18147;DHT22;9199;48.832;9.182;2023-12-04T14:10:24;0.70;99.90
18147;DHT22;9199;48.832;9.182;2023-12-04T14:12:52;0.70;99.90
18147;DHT22;9199;48.832;9.182;2023-12-04T14:15:20;0.70;99.90
18147;DHT22;9199;48.832;9.182;2023-12-04T14:17:47;0.80;99.90
18147;DHT22;9199;48.832;9.182;2023-12-04T14:20:14;0.70;99.90
18147;DHT22;9199;48.832;9.182;2023-12-04T14:22:44;0.70;99.90
18147;DHT22;9199;48.832;9.182;2023-12-04T14:25:11;0.70;99.90
18147;DHT22;9199;48.832;9.182;2023-12-04T14:27:38;0.70;99.90
18147;DHT22;9199;48.832;9.182;2023-12-04T14:30:07;0.70;99.90
18147;DHT22;9199;48.832;9.182;2023-12-04T14:32:36;0.70;99.90
18147;DHT22;9199;48.832;9.182;2023-12-04T14:35:04;0.60;99.90
18147;DHT22;9199;48.832;9.182;2023-12-04T14:37:32;0.70;99.90
18147;DHT22;9199;48.832;9.182;2023-12-04T14:39:59;0.70;99.90
18147;DHT22;9199;48.832;9.182;2023-12-04T14:42:26;0.70;99.90
18147;DHT22;9199;48.832;9.182;2023-12-04T14:44:53;0.70;99.90
18147;DHT22;9199;48.832;9.182;2023-12-04T14:47:20;0.80;99.90
18147;DHT22;9199;48.832;9.182;2023-12-04T14:49:49;0.80;99.90
18147;DHT22;9199;48.832;9.182;2023-12-04T14:52:20;0.90;99.90
18147;DHT22;9199;48.832;9.182;2023-12-04T14:54:47;0.90;99.90
18147;DHT22;9199;48.832;9.182;2023-12-04T14:57:38;0.90;99.90
18147;DHT22;9199;48.832;9.182;2023-12-04T15:00:40;0.90;99.90
18147;DHT22;9199;48.832;9.182;2023-12-04T15:03:33;0.80;99.90
18147;DHT22;9199;48.832;9.182;2023-12-04T15:06:18;0.80;99.90
18147;DHT22;9199;48.832;9.182;2023-12-04T15:09:24;0.80;99.90
18147;DHT22;9199;48.832;9.182;2023-12-04T15:12:13;0.80;99.90
18147;DHT22;9199;48.832;9.182;2023-12-04T15:14:49;0.80;99.90
18147;DHT22;9199;48.832;9.182;2023-12-04T15:17:21;0.80;99.90
18147;DHT22;9199;48.832;9.182;2023-12-04T15:19:58;0.80;99.90
18147;DHT22;9199;48.832;9.182;2023-12-04T15:22:40;0.80;99.90
18147;DHT22;9199;48.832;9.182;2023-12-04T15:25:07;0.80;99.90
18147;DHT22;9199;48.832;9.182;2023-12-04T15:27:36;0.80;99.90
18147;DHT22;9199;48.832;9.182;2023-12-04T15:30:04;0.80;99.90
18147;DHT22;9199;48.832;9.182;2023-12-04T15:32:33;0.80;99.90
18147;DHT22;9199;48.832;9.182;2023-12-04T15:34:59;0.80;99.90
18147;DHT22;9199;48.832;9.182;2023-12-04T15:37:26;0.90;99.90
18147;DHT22;9199;48.832;9.182;2023-12-04T15:39:53;0.90;99.90
18147;DHT22;9199;48.832;9.182;2023-12-04T15:42:20;0.90;99.90
18147;DHT22;9199;48.832;9.182;2023-12-04T15:44:47;1.00;99.90
18147;DHT22;9199;48.832;9.182;2023-12-04T15:47:12;1.00;99.90
18147;DHT22;9199;48.832;9.182;2023-12-04T15:49:39;1.00;99.90
18147;DHT22;9199;48.832;9.182;2023-12-04T15:52:05;1.00;99.90
18147;DHT22;9199;48.832;9.182;2023-12-04T15:54:34;1.00;99.90
18147;DHT22;9199;48.832;9.182;2023-12-04T15:57:02;1.00;99.90
18147;DHT22;9199;48.832;9.182;2023-12-04T15:59:29;1.00;99.90